sensor_id;sensor_type;location;lat;lon;timestamp;P1;durP1;ratioP1;P2;durP2;ratioP2
17858;SDS011;35426;30.698;104.050;2022-09-02T00:01:13;30.73;;;23.40;;
17858;SDS011;35426;30.698;104.050;2022-09-02T00:03:49;38.50;;;26.27;;
17858;SDS011;35426;30.698;104.050;2022-09-02T00:06:28;32.20;;;23.87;;
17858;SDS011;35426;30.698;104.050;2022-09-02T00:09:02;33.60;;;24.27;;
17858;SDS011;35426;30.698;104.050;2022-09-02T00:11:37;35.50;;;24.27;;
17858;SDS011;35426;30.698;104.050;2022-09-02T00:14:13;36.93;;;24.60;;
17858;SDS011;35426;30.698;104.050;2022-09-02T00:16:49;32.73;;;23.20;;
17858;SDS011;35426;30.698;104.050;2022-09-02T00:19:24;36.20;;;23.87;;
17858;SDS011;35426;30.698;104.050;2022-09-02T00:22:00;33.13;;;23.87;;
17858;SDS011;35426;30.698;104.050;2022-09-02T00:24:35;36.97;;;24.87;;
17858;SDS011;35426;30.698;104.050;2022-09-02T00:27:09;37.00;;;25.10;;
17858;SDS011;35426;30.698;104.050;2022-09-02T00:29:43;34.10;;;24.87;;
17858;SDS011;35426;30.698;104.050;2022-09-02T00:32:16;32.93;;;23.07;;
17858;SDS011;35426;30.698;104.050;2022-09-02T00:34:49;35.83;;;24.07;;
17858;SDS011;35426;30.698;104.050;2022-09-02T00:37:26;35.73;;;23.00;;
17858;SDS011;35426;30.698;104.050;2022-09-02T00:42:47;33.37;;;22.87;;
17858;SDS011;35426;30.698;104.050;2022-09-02T00:45:20;31.23;;;22.83;;
17858;SDS011;35426;30.698;104.050;2022-09-02T00:47:54;34.80;;;24.43;;
17858;SDS011;35426;30.698;104.050;2022-09-02T00:50:29;34.30;;;24.23;;
17858;SDS011;35426;30.698;104.050;2022-09-02T00:53:07;33.67;;;24.33;;
17858;SDS011;35426;30.698;104.050;2022-09-02T00:55:45;37.37;;;24.63;;
17858;SDS011;35426;30.698;104.050;2022-09-02T00:58:21;36.07;;;25.30;;
17858;SDS011;35426;30.698;104.050;2022-09-02T01:01:00;35.63;;;25.50;;
17858;SDS011;35426;30.698;104.050;2022-09-02T01:03:34;34.73;;;25.27;;
17858;SDS011;35426;30.698;104.050;2022-09-02T01:06:09;36.40;;;25.10;;
17858;SDS011;35426;30.698;104.050;2022-09-02T01:08:46;33.80;;;24.40;;
17858;SDS011;35426;30.698;104.050;2022-09-02T01:11:27;38.03;;;26.47;;
17858;SDS011;35426;30.698;104.050;2022-09-02T01:14:06;38.00;;;27.33;;
17858;SDS011;35426;30.698;104.050;2022-09-02T01:16:42;37.90;;;25.97;;
17858;SDS011;35426;30.698;104.050;2022-09-02T01:19:20;35.70;;;27.07;;
17858;SDS011;35426;30.698;104.050;2022-09-02T01:21:57;39.87;;;27.63;;
17858;SDS011;35426;30.698;104.050;2022-09-02T01:24:47;39.83;;;30.03;;
17858;SDS011;35426;30.698;104.050;2022-09-02T01:27:23;47.67;;;29.00;;
17858;SDS011;35426;30.698;104.050;2022-09-02T01:29:59;37.03;;;27.33;;
17858;SDS011;35426;30.698;104.050;2022-09-02T01:32:34;42.03;;;29.07;;
17858;SDS011;35426;30.698;104.050;2022-09-02T01:35:07;44.10;;;29.40;;
17858;SDS011;35426;30.698;104.050;2022-09-02T01:37:44;42.23;;;28.20;;
17858;SDS011;35426;30.698;104.050;2022-09-02T01:40:22;38.17;;;28.57;;
17858;SDS011;35426;30.698;104.050;2022-09-02T01:42:58;45.80;;;28.93;;
17858;SDS011;35426;30.698;104.050;2022-09-02T01:45:35;41.77;;;30.13;;
17858;SDS011;35426;30.698;104.050;2022-09-02T01:48:11;42.20;;;29.73;;
17858;SDS011;35426;30.698;104.050;2022-09-02T01:50:52;44.30;;;30.60;;
17858;SDS011;35426;30.698;104.050;2022-09-02T01:53:31;44.97;;;29.93;;
17858;SDS011;35426;30.698;104.050;2022-09-02T01:56:06;41.80;;;29.13;;
17858;SDS011;35426;30.698;104.050;2022-09-02T01:58:40;43.57;;;29.33;;
17858;SDS011;35426;30.698;104.050;2022-09-02T02:01:13;43.83;;;28.67;;
17858;SDS011;35426;30.698;104.050;2022-09-02T02:03:48;52.77;;;30.00;;
17858;SDS011;35426;30.698;104.050;2022-09-02T02:06:24;49.27;;;30.50;;
17858;SDS011;35426;30.698;104.050;2022-09-02T02:09:01;41.80;;;29.50;;
17858;SDS011;35426;30.698;104.050;2022-09-02T02:11:35;51.73;;;32.13;;
17858;SDS011;35426;30.698;104.050;2022-09-02T02:14:08;54.83;;;33.13;;
17858;SDS011;35426;30.698;104.050;2022-09-02T02:16:47;52.80;;;31.87;;
17858;SDS011;35426;30.698;104.050;2022-09-02T02:19:23;55.87;;;34.43;;
17858;SDS011;35426;30.698;104.050;2022-09-02T02:21:58;54.33;;;34.67;;
17858;SDS011;35426;30.698;104.050;2022-09-02T02:24:34;52.63;;;34.90;;
17858;SDS011;35426;30.698;104.050;2022-09-02T02:27:08;54.10;;;35.13;;
17858;SDS011;35426;30.698;104.050;2022-09-02T02:29:42;56.37;;;35.13;;
17858;SDS011;35426;30.698;104.050;2022-09-02T02:32:16;51.80;;;34.30;;
17858;SDS011;35426;30.698;104.050;2022-09-02T02:34:50;54.03;;;35.17;;
17858;SDS011;35426;30.698;104.050;2022-09-02T02:37:25;57.43;;;36.37;;
17858;SDS011;35426;30.698;104.050;2022-09-02T02:40:00;56.13;;;35.27;;
17858;SDS011;35426;30.698;104.050;2022-09-02T02:42:35;55.27;;;34.80;;
17858;SDS011;35426;30.698;104.050;2022-09-02T02:45:10;52.43;;;34.23;;
17858;SDS011;35426;30.698;104.050;2022-09-02T02:47:44;58.47;;;34.67;;
17858;SDS011;35426;30.698;104.050;2022-09-02T02:50:20;49.83;;;33.07;;
17858;SDS011;35426;30.698;104.050;2022-09-02T02:52:54;51.57;;;33.13;;
17858;SDS011;35426;30.698;104.050;2022-09-02T02:55:33;50.70;;;31.47;;
17858;SDS011;35426;30.698;104.050;2022-09-02T02:58:07;49.40;;;31.87;;
17858;SDS011;35426;30.698;104.050;2022-09-02T03:00:43;51.33;;;31.60;;
17858;SDS011;35426;30.698;104.050;2022-09-02T03:03:19;51.77;;;32.37;;
17858;SDS011;35426;30.698;104.050;2022-09-02T03:05:58;44.33;;;30.37;;
17858;SDS011;35426;30.698;104.050;2022-09-02T03:08:32;45.33;;;31.87;;
17858;SDS011;35426;30.698;104.050;2022-09-02T03:11:27;46.47;;;30.17;;
17858;SDS011;35426;30.698;104.050;2022-09-02T03:14:01;47.10;;;29.23;;
17858;SDS011;35426;30.698;104.050;2022-09-02T03:16:36;51.83;;;30.73;;
17858;SDS011;35426;30.698;104.050;2022-09-02T03:19:11;44.63;;;29.93;;
17858;SDS011;35426;30.698;104.050;2022-09-02T03:21:44;40.53;;;27.67;;
17858;SDS011;35426;30.698;104.050;2022-09-02T03:24:19;41.07;;;28.07;;
17858;SDS011;35426;30.698;104.050;2022-09-02T03:26:57;38.07;;;27.03;;
17858;SDS011;35426;30.698;104.050;2022-09-02T03:29:31;42.73;;;27.87;;
17858;SDS011;35426;30.698;104.050;2022-09-02T03:32:06;38.63;;;27.17;;
17858;SDS011;35426;30.698;104.050;2022-09-02T03:34:42;42.23;;;26.70;;
17858;SDS011;35426;30.698;104.050;2022-09-02T03:37:18;41.10;;;27.33;;
17858;SDS011;35426;30.698;104.050;2022-09-02T03:39:52;37.47;;;26.53;;
17858;SDS011;35426;30.698;104.050;2022-09-02T03:42:28;41.77;;;27.00;;
17858;SDS011;35426;30.698;104.050;2022-09-02T03:45:03;42.27;;;28.37;;
17858;SDS011;35426;30.698;104.050;2022-09-02T03:47:41;44.17;;;31.00;;
17858;SDS011;35426;30.698;104.050;2022-09-02T03:50:22;43.63;;;28.80;;
17858;SDS011;35426;30.698;104.050;2022-09-02T03:52:58;46.13;;;27.80;;
17858;SDS011;35426;30.698;104.050;2022-09-02T03:55:32;42.53;;;28.60;;
17858;SDS011;35426;30.698;104.050;2022-09-02T03:58:10;45.97;;;30.73;;
17858;SDS011;35426;30.698;104.050;2022-09-02T04:00:47;48.07;;;32.00;;
17858;SDS011;35426;30.698;104.050;2022-09-02T04:03:24;50.80;;;31.63;;
17858;SDS011;35426;30.698;104.050;2022-09-02T04:05:58;46.77;;;31.00;;
17858;SDS011;35426;30.698;104.050;2022-09-02T04:08:39;43.20;;;30.10;;
17858;SDS011;35426;30.698;104.050;2022-09-02T04:11:18;46.67;;;30.80;;
17858;SDS011;35426;30.698;104.050;2022-09-02T04:13:55;45.13;;;30.13;;
17858;SDS011;35426;30.698;104.050;2022-09-02T04:16:30;46.57;;;29.97;;
17858;SDS011;35426;30.698;104.050;2022-09-02T04:19:06;49.53;;;30.70;;
17858;SDS011;35426;30.698;104.050;2022-09-02T04:21:40;49.00;;;29.63;;
17858;SDS011;35426;30.698;104.050;2022-09-02T04:24:14;44.20;;;30.47;;
17858;SDS011;35426;30.698;104.050;2022-09-02T04:26:49;46.57;;;31.07;;
17858;SDS011;35426;30.698;104.050;2022-09-02T04:29:29;49.30;;;33.30;;
17858;SDS011;35426;30.698;104.050;2022-09-02T04:32:02;51.00;;;33.83;;
17858;SDS011;35426;30.698;104.050;2022-09-02T04:34:37;52.77;;;35.30;;
17858;SDS011;35426;30.698;104.050;2022-09-02T04:37:12;49.80;;;33.00;;
17858;SDS011;35426;30.698;104.050;2022-09-02T04:39:47;50.23;;;34.33;;
17858;SDS011;35426;30.698;104.050;2022-09-02T04:42:22;51.47;;;34.43;;
17858;SDS011;35426;30.698;104.050;2022-09-02T04:44:59;51.53;;;33.47;;
17858;SDS011;35426;30.698;104.050;2022-09-02T04:47:38;50.50;;;34.03;;
17858;SDS011;35426;30.698;104.050;2022-09-02T04:50:14;51.87;;;34.33;;
17858;SDS011;35426;30.698;104.050;2022-09-02T04:52:57;48.87;;;33.33;;
17858;SDS011;35426;30.698;104.050;2022-09-02T04:55:31;51.67;;;34.13;;
17858;SDS011;35426;30.698;104.050;2022-09-02T04:58:04;49.47;;;33.70;;
17858;SDS011;35426;30.698;104.050;2022-09-02T05:00:42;57.27;;;36.70;;
17858;SDS011;35426;30.698;104.050;2022-09-02T05:03:17;53.73;;;35.53;;
17858;SDS011;35426;30.698;104.050;2022-09-02T05:05:59;49.93;;;34.73;;
17858;SDS011;35426;30.698;104.050;2022-09-02T05:08:34;51.83;;;34.77;;
17858;SDS011;35426;30.698;104.050;2022-09-02T05:11:11;49.03;;;35.60;;
17858;SDS011;35426;30.698;104.050;2022-09-02T05:13:48;52.00;;;34.40;;
17858;SDS011;35426;30.698;104.050;2022-09-02T05:16:25;53.40;;;35.13;;
17858;SDS011;35426;30.698;104.050;2022-09-02T05:19:01;53.47;;;35.93;;
17858;SDS011;35426;30.698;104.050;2022-09-02T05:21:40;56.90;;;35.57;;
17858;SDS011;35426;30.698;104.050;2022-09-02T05:24:25;54.07;;;36.27;;
17858;SDS011;35426;30.698;104.050;2022-09-02T05:27:04;51.37;;;33.73;;
17858;SDS011;35426;30.698;104.050;2022-09-02T05:29:39;52.33;;;35.73;;
17858;SDS011;35426;30.698;104.050;2022-09-02T05:32:17;50.43;;;35.23;;
17858;SDS011;35426;30.698;104.050;2022-09-02T05:34:52;47.67;;;33.70;;
17858;SDS011;35426;30.698;104.050;2022-09-02T05:37:26;50.80;;;35.63;;
17858;SDS011;35426;30.698;104.050;2022-09-02T05:39:59;53.43;;;34.70;;
17858;SDS011;35426;30.698;104.050;2022-09-02T05:42:37;51.10;;;35.10;;
17858;SDS011;35426;30.698;104.050;2022-09-02T05:45:14;56.50;;;37.07;;
17858;SDS011;35426;30.698;104.050;2022-09-02T05:47:50;45.07;;;32.27;;
17858;SDS011;35426;30.698;104.050;2022-09-02T05:50:27;49.73;;;34.77;;
17858;SDS011;35426;30.698;104.050;2022-09-02T05:53:01;47.03;;;33.30;;
17858;SDS011;35426;30.698;104.050;2022-09-02T05:55:41;48.13;;;33.50;;
17858;SDS011;35426;30.698;104.050;2022-09-02T05:58:18;48.07;;;32.93;;
17858;SDS011;35426;30.698;104.050;2022-09-02T06:00:53;51.37;;;34.37;;
17858;SDS011;35426;30.698;104.050;2022-09-02T06:03:30;48.47;;;33.70;;
17858;SDS011;35426;30.698;104.050;2022-09-02T06:06:06;54.43;;;35.47;;
17858;SDS011;35426;30.698;104.050;2022-09-02T06:08:41;50.73;;;35.03;;
17858;SDS011;35426;30.698;104.050;2022-09-02T06:11:16;48.67;;;34.77;;
17858;SDS011;35426;30.698;104.050;2022-09-02T06:13:51;51.60;;;34.00;;
17858;SDS011;35426;30.698;104.050;2022-09-02T06:16:26;47.10;;;34.20;;
17858;SDS011;35426;30.698;104.050;2022-09-02T06:19:01;52.00;;;37.00;;
17858;SDS011;35426;30.698;104.050;2022-09-02T06:21:36;45.40;;;31.40;;
17858;SDS011;35426;30.698;104.050;2022-09-02T06:24:11;49.63;;;33.53;;
17858;SDS011;35426;30.698;104.050;2022-09-02T06:26:49;45.47;;;32.37;;
17858;SDS011;35426;30.698;104.050;2022-09-02T06:29:24;49.17;;;32.37;;
17858;SDS011;35426;30.698;104.050;2022-09-02T06:31:58;47.17;;;33.80;;
17858;SDS011;35426;30.698;104.050;2022-09-02T06:34:33;48.80;;;33.70;;
17858;SDS011;35426;30.698;104.050;2022-09-02T06:37:08;50.63;;;33.30;;
17858;SDS011;35426;30.698;104.050;2022-09-02T06:39:42;49.87;;;32.70;;
17858;SDS011;35426;30.698;104.050;2022-09-02T06:42:21;50.70;;;33.83;;
17858;SDS011;35426;30.698;104.050;2022-09-02T06:45:09;51.30;;;33.70;;
17858;SDS011;35426;30.698;104.050;2022-09-02T06:47:45;48.50;;;33.57;;
17858;SDS011;35426;30.698;104.050;2022-09-02T06:50:34;49.20;;;33.63;;
17858;SDS011;35426;30.698;104.050;2022-09-02T06:53:12;52.27;;;35.20;;
17858;SDS011;35426;30.698;104.050;2022-09-02T06:56:06;51.00;;;35.43;;
17858;SDS011;35426;30.698;104.050;2022-09-02T06:58:53;52.97;;;35.87;;
17858;SDS011;35426;30.698;104.050;2022-09-02T07:01:53;56.07;;;37.60;;
17858;SDS011;35426;30.698;104.050;2022-09-02T07:04:27;53.20;;;37.63;;
17858;SDS011;35426;30.698;104.050;2022-09-02T07:07:23;58.10;;;37.63;;
17858;SDS011;35426;30.698;104.050;2022-09-02T07:10:05;60.50;;;39.00;;
17858;SDS011;35426;30.698;104.050;2022-09-02T07:12:54;51.70;;;37.23;;
17858;SDS011;35426;30.698;104.050;2022-09-02T07:15:28;59.20;;;38.83;;
17858;SDS011;35426;30.698;104.050;2022-09-02T07:18:01;55.60;;;39.73;;
17858;SDS011;35426;30.698;104.050;2022-09-02T07:20:36;55.17;;;38.40;;
17858;SDS011;35426;30.698;104.050;2022-09-02T07:23:15;55.23;;;39.60;;
17858;SDS011;35426;30.698;104.050;2022-09-02T07:25:50;57.00;;;40.67;;
17858;SDS011;35426;30.698;104.050;2022-09-02T07:28:24;52.07;;;38.23;;
17858;SDS011;35426;30.698;104.050;2022-09-02T07:30:59;57.23;;;40.83;;
17858;SDS011;35426;30.698;104.050;2022-09-02T07:33:40;55.33;;;39.73;;
17858;SDS011;35426;30.698;104.050;2022-09-02T07:36:16;55.00;;;38.37;;
17858;SDS011;35426;30.698;104.050;2022-09-02T07:38:52;57.40;;;40.37;;
17858;SDS011;35426;30.698;104.050;2022-09-02T07:41:26;53.10;;;36.67;;
17858;SDS011;35426;30.698;104.050;2022-09-02T07:44:01;50.80;;;36.17;;
17858;SDS011;35426;30.698;104.050;2022-09-02T07:46:36;53.43;;;37.97;;
17858;SDS011;35426;30.698;104.050;2022-09-02T07:49:16;51.57;;;35.17;;
17858;SDS011;35426;30.698;104.050;2022-09-02T07:51:51;47.40;;;34.37;;
17858;SDS011;35426;30.698;104.050;2022-09-02T07:54:27;47.73;;;34.37;;
17858;SDS011;35426;30.698;104.050;2022-09-02T07:57:03;50.57;;;35.30;;
17858;SDS011;35426;30.698;104.050;2022-09-02T07:59:37;48.17;;;34.80;;
17858;SDS011;35426;30.698;104.050;2022-09-02T08:02:14;46.50;;;33.53;;
17858;SDS011;35426;30.698;104.050;2022-09-02T08:04:48;47.27;;;34.13;;
17858;SDS011;35426;30.698;104.050;2022-09-02T08:07:21;45.03;;;33.83;;
17858;SDS011;35426;30.698;104.050;2022-09-02T08:09:58;48.73;;;32.70;;
17858;SDS011;35426;30.698;104.050;2022-09-02T08:12:44;46.47;;;31.87;;
17858;SDS011;35426;30.698;104.050;2022-09-02T08:15:19;46.97;;;32.70;;
17858;SDS011;35426;30.698;104.050;2022-09-02T08:17:55;47.63;;;30.60;;
17858;SDS011;35426;30.698;104.050;2022-09-02T08:20:29;45.73;;;31.10;;
17858;SDS011;35426;30.698;104.050;2022-09-02T08:23:03;43.63;;;30.43;;
17858;SDS011;35426;30.698;104.050;2022-09-02T08:25:54;46.20;;;33.43;;
17858;SDS011;35426;30.698;104.050;2022-09-02T08:28:30;40.83;;;29.10;;
17858;SDS011;35426;30.698;104.050;2022-09-02T08:31:05;42.87;;;30.00;;
17858;SDS011;35426;30.698;104.050;2022-09-02T08:33:55;39.00;;;28.90;;
17858;SDS011;35426;30.698;104.050;2022-09-02T08:36:29;39.97;;;28.17;;
17858;SDS011;35426;30.698;104.050;2022-09-02T08:39:03;37.67;;;27.30;;
17858;SDS011;35426;30.698;104.050;2022-09-02T08:41:40;37.33;;;28.20;;
17858;SDS011;35426;30.698;104.050;2022-09-02T08:44:19;44.23;;;28.67;;
17858;SDS011;35426;30.698;104.050;2022-09-02T08:50:41;33.90;;;24.10;;
17858;SDS011;35426;30.698;104.050;2022-09-02T08:53:17;28.80;;;19.23;;
17858;SDS011;35426;30.698;104.050;2022-09-02T08:55:57;35.13;;;24.53;;
17858;SDS011;35426;30.698;104.050;2022-09-02T08:58:35;32.37;;;23.60;;
17858;SDS011;35426;30.698;104.050;2022-09-02T09:01:13;35.37;;;25.47;;
17858;SDS011;35426;30.698;104.050;2022-09-02T09:04:18;30.37;;;22.33;;
17858;SDS011;35426;30.698;104.050;2022-09-02T09:07:12;33.77;;;23.93;;
17858;SDS011;35426;30.698;104.050;2022-09-02T09:09:54;17.17;;;13.57;;
17858;SDS011;35426;30.698;104.050;2022-09-02T09:12:57;19.67;;;14.80;;
17858;SDS011;35426;30.698;104.050;2022-09-02T09:15:48;21.90;;;16.27;;
17858;SDS011;35426;30.698;104.050;2022-09-02T09:18:29;25.67;;;20.00;;
17858;SDS011;35426;30.698;104.050;2022-09-02T09:21:12;25.97;;;17.77;;
17858;SDS011;35426;30.698;104.050;2022-09-02T09:23:47;22.30;;;16.43;;
17858;SDS011;35426;30.698;104.050;2022-09-02T09:26:25;19.33;;;12.97;;
17858;SDS011;35426;30.698;104.050;2022-09-02T09:29:03;21.13;;;14.70;;
17858;SDS011;35426;30.698;104.050;2022-09-02T09:31:41;16.07;;;12.83;;
17858;SDS011;35426;30.698;104.050;2022-09-02T09:34:17;15.63;;;12.00;;
17858;SDS011;35426;30.698;104.050;2022-09-02T09:36:51;18.60;;;14.17;;
17858;SDS011;35426;30.698;104.050;2022-09-02T09:39:27;18.40;;;13.73;;
17858;SDS011;35426;30.698;104.050;2022-09-02T09:42:08;15.40;;;11.60;;
17858;SDS011;35426;30.698;104.050;2022-09-02T09:44:50;28.70;;;22.07;;
17858;SDS011;35426;30.698;104.050;2022-09-02T09:47:26;36.00;;;23.23;;
17858;SDS011;35426;30.698;104.050;2022-09-02T09:50:09;36.37;;;24.83;;
17858;SDS011;35426;30.698;104.050;2022-09-02T09:52:48;38.27;;;26.87;;
17858;SDS011;35426;30.698;104.050;2022-09-02T09:55:22;45.60;;;30.23;;
17858;SDS011;35426;30.698;104.050;2022-09-02T09:57:56;57.33;;;33.10;;
17858;SDS011;35426;30.698;104.050;2022-09-02T10:00:43;70.83;;;40.83;;
17858;SDS011;35426;30.698;104.050;2022-09-02T10:03:21;61.13;;;34.80;;
17858;SDS011;35426;30.698;104.050;2022-09-02T10:06:15;43.80;;;28.30;;
17858;SDS011;35426;30.698;104.050;2022-09-02T10:08:54;40.40;;;27.37;;
17858;SDS011;35426;30.698;104.050;2022-09-02T10:11:30;46.40;;;30.03;;
17858;SDS011;35426;30.698;104.050;2022-09-02T10:14:10;41.57;;;28.13;;
17858;SDS011;35426;30.698;104.050;2022-09-02T10:16:47;40.80;;;28.07;;
17858;SDS011;35426;30.698;104.050;2022-09-02T10:19:36;45.97;;;29.00;;
17858;SDS011;35426;30.698;104.050;2022-09-02T10:22:20;41.17;;;26.70;;
17858;SDS011;35426;30.698;104.050;2022-09-02T10:25:29;39.73;;;27.30;;
17858;SDS011;35426;30.698;104.050;2022-09-02T10:28:15;42.30;;;27.37;;
17858;SDS011;35426;30.698;104.050;2022-09-02T10:31:00;43.80;;;29.20;;
17858;SDS011;35426;30.698;104.050;2022-09-02T10:33:41;40.70;;;28.93;;
17858;SDS011;35426;30.698;104.050;2022-09-02T10:36:33;40.33;;;27.80;;
17858;SDS011;35426;30.698;104.050;2022-09-02T10:39:17;40.80;;;27.30;;
17858;SDS011;35426;30.698;104.050;2022-09-02T10:41:59;41.40;;;27.37;;
17858;SDS011;35426;30.698;104.050;2022-09-02T10:44:42;41.17;;;27.80;;
17858;SDS011;35426;30.698;104.050;2022-09-02T10:47:27;45.53;;;26.90;;
17858;SDS011;35426;30.698;104.050;2022-09-02T10:50:10;43.20;;;26.60;;
17858;SDS011;35426;30.698;104.050;2022-09-02T10:52:55;37.97;;;25.93;;
17858;SDS011;35426;30.698;104.050;2022-09-02T10:55:41;41.17;;;24.80;;
17858;SDS011;35426;30.698;104.050;2022-09-02T10:58:30;39.53;;;24.20;;
17858;SDS011;35426;30.698;104.050;2022-09-02T11:01:12;39.93;;;25.30;;
17858;SDS011;35426;30.698;104.050;2022-09-02T11:03:59;35.17;;;23.20;;
17858;SDS011;35426;30.698;104.050;2022-09-02T11:06:40;35.00;;;23.20;;
17858;SDS011;35426;30.698;104.050;2022-09-02T11:09:34;32.47;;;22.23;;
17858;SDS011;35426;30.698;104.050;2022-09-02T11:12:13;34.20;;;22.73;;
17858;SDS011;35426;30.698;104.050;2022-09-02T11:14:55;37.00;;;24.23;;
17858;SDS011;35426;30.698;104.050;2022-09-02T11:17:36;37.43;;;24.37;;
17858;SDS011;35426;30.698;104.050;2022-09-02T11:20:26;36.43;;;23.87;;
17858;SDS011;35426;30.698;104.050;2022-09-02T11:23:05;43.90;;;27.70;;
17858;SDS011;35426;30.698;104.050;2022-09-02T11:25:51;34.53;;;23.70;;
17858;SDS011;35426;30.698;104.050;2022-09-02T11:28:33;37.23;;;24.93;;
17858;SDS011;35426;30.698;104.050;2022-09-02T11:31:15;33.23;;;22.70;;
17858;SDS011;35426;30.698;104.050;2022-09-02T11:33:54;33.07;;;23.13;;
17858;SDS011;35426;30.698;104.050;2022-09-02T11:36:36;36.63;;;22.70;;
17858;SDS011;35426;30.698;104.050;2022-09-02T11:39:15;34.53;;;24.07;;
17858;SDS011;35426;30.698;104.050;2022-09-02T11:42:24;36.63;;;24.37;;
17858;SDS011;35426;30.698;104.050;2022-09-02T11:45:37;42.83;;;26.17;;
17858;SDS011;35426;30.698;104.050;2022-09-02T11:51:54;37.37;;;25.47;;
17858;SDS011;35426;30.698;104.050;2022-09-02T11:54:54;42.00;;;28.87;;
17858;SDS011;35426;30.698;104.050;2022-09-02T11:57:45;42.80;;;29.60;;
17858;SDS011;35426;30.698;104.050;2022-09-02T12:00:27;48.20;;;31.13;;
17858;SDS011;35426;30.698;104.050;2022-09-02T12:03:23;43.73;;;30.00;;
17858;SDS011;35426;30.698;104.050;2022-09-02T12:06:20;45.20;;;30.63;;
17858;SDS011;35426;30.698;104.050;2022-09-02T12:08:55;44.57;;;29.80;;
17858;SDS011;35426;30.698;104.050;2022-09-02T12:11:38;42.00;;;28.77;;
17858;SDS011;35426;30.698;104.050;2022-09-02T12:30:11;47.13;;;29.07;;
17858;SDS011;35426;30.698;104.050;2022-09-02T12:35:51;44.77;;;29.10;;
17858;SDS011;35426;30.698;104.050;2022-09-02T12:38:32;42.13;;;29.57;;
17858;SDS011;35426;30.698;104.050;2022-09-02T12:41:25;41.63;;;27.80;;
17858;SDS011;35426;30.698;104.050;2022-09-02T12:47:07;43.77;;;28.17;;
17858;SDS011;35426;30.698;104.050;2022-09-02T12:49:52;39.20;;;27.47;;
17858;SDS011;35426;30.698;104.050;2022-09-02T12:52:44;37.13;;;27.47;;
17858;SDS011;35426;30.698;104.050;2022-09-02T12:55:22;40.60;;;27.40;;
17858;SDS011;35426;30.698;104.050;2022-09-02T12:58:05;42.73;;;28.40;;
17858;SDS011;35426;30.698;104.050;2022-09-02T13:00:50;40.77;;;26.90;;
17858;SDS011;35426;30.698;104.050;2022-09-02T13:03:47;43.27;;;29.27;;
17858;SDS011;35426;30.698;104.050;2022-09-02T13:06:38;42.63;;;27.80;;
17858;SDS011;35426;30.698;104.050;2022-09-02T13:15:53;40.47;;;26.93;;
17858;SDS011;35426;30.698;104.050;2022-09-02T13:19:03;45.77;;;28.00;;
17858;SDS011;35426;30.698;104.050;2022-09-02T13:31:22;38.50;;;25.77;;
17858;SDS011;35426;30.698;104.050;2022-09-02T13:33:57;41.87;;;27.63;;
17858;SDS011;35426;30.698;104.050;2022-09-02T13:36:35;41.70;;;26.73;;
17858;SDS011;35426;30.698;104.050;2022-09-02T13:39:16;39.87;;;25.80;;
17858;SDS011;35426;30.698;104.050;2022-09-02T13:41:51;38.17;;;26.33;;
17858;SDS011;35426;30.698;104.050;2022-09-02T13:44:26;38.30;;;25.27;;
17858;SDS011;35426;30.698;104.050;2022-09-02T13:47:03;38.47;;;25.83;;
17858;SDS011;35426;30.698;104.050;2022-09-02T13:49:45;40.93;;;26.60;;
17858;SDS011;35426;30.698;104.050;2022-09-02T13:52:23;37.50;;;25.13;;
17858;SDS011;35426;30.698;104.050;2022-09-02T13:55:18;39.80;;;24.03;;
17858;SDS011;35426;30.698;104.050;2022-09-02T13:57:58;38.20;;;25.63;;
17858;SDS011;35426;30.698;104.050;2022-09-02T14:00:36;40.53;;;25.00;;
17858;SDS011;35426;30.698;104.050;2022-09-02T14:03:14;39.47;;;26.30;;
17858;SDS011;35426;30.698;104.050;2022-09-02T14:05:51;39.40;;;25.10;;
17858;SDS011;35426;30.698;104.050;2022-09-02T14:08:32;37.43;;;26.33;;
17858;SDS011;35426;30.698;104.050;2022-09-02T14:11:07;36.30;;;25.20;;
17858;SDS011;35426;30.698;104.050;2022-09-02T14:14:01;36.17;;;24.50;;
17858;SDS011;35426;30.698;104.050;2022-09-02T14:16:35;36.07;;;23.83;;
17858;SDS011;35426;30.698;104.050;2022-09-02T14:19:22;40.97;;;24.23;;
17858;SDS011;35426;30.698;104.050;2022-09-02T14:21:56;33.27;;;23.07;;
17858;SDS011;35426;30.698;104.050;2022-09-02T14:24:38;37.53;;;23.90;;
17858;SDS011;35426;30.698;104.050;2022-09-02T14:27:15;34.50;;;22.37;;
17858;SDS011;35426;30.698;104.050;2022-09-02T14:29:57;34.27;;;22.40;;
17858;SDS011;35426;30.698;104.050;2022-09-02T14:32:34;33.47;;;21.53;;
17858;SDS011;35426;30.698;104.050;2022-09-02T14:35:11;38.80;;;23.03;;
17858;SDS011;35426;30.698;104.050;2022-09-02T14:37:52;33.47;;;21.60;;
17858;SDS011;35426;30.698;104.050;2022-09-02T14:40:31;38.13;;;22.13;;
17858;SDS011;35426;30.698;104.050;2022-09-02T14:43:10;31.23;;;21.43;;
17858;SDS011;35426;30.698;104.050;2022-09-02T14:45:47;32.20;;;20.60;;
17858;SDS011;35426;30.698;104.050;2022-09-02T14:48:23;36.13;;;21.70;;
17858;SDS011;35426;30.698;104.050;2022-09-02T14:51:42;36.43;;;21.13;;
17858;SDS011;35426;30.698;104.050;2022-09-02T14:57:06;32.97;;;21.17;;
17858;SDS011;35426;30.698;104.050;2022-09-02T14:59:52;33.00;;;19.87;;
17858;SDS011;35426;30.698;104.050;2022-09-02T15:02:30;31.20;;;20.03;;
17858;SDS011;35426;30.698;104.050;2022-09-02T15:05:25;27.63;;;19.10;;
17858;SDS011;35426;30.698;104.050;2022-09-02T15:08:00;30.33;;;19.93;;
17858;SDS011;35426;30.698;104.050;2022-09-02T15:10:35;30.53;;;19.57;;
17858;SDS011;35426;30.698;104.050;2022-09-02T15:13:12;29.63;;;18.97;;
17858;SDS011;35426;30.698;104.050;2022-09-02T15:15:52;27.27;;;19.20;;
17858;SDS011;35426;30.698;104.050;2022-09-02T15:18:26;31.13;;;19.73;;
17858;SDS011;35426;30.698;104.050;2022-09-02T15:21:00;30.53;;;19.53;;
17858;SDS011;35426;30.698;104.050;2022-09-02T15:23:36;35.23;;;19.60;;
17858;SDS011;35426;30.698;104.050;2022-09-02T15:26:15;32.13;;;19.40;;
17858;SDS011;35426;30.698;104.050;2022-09-02T15:28:49;30.00;;;19.60;;
17858;SDS011;35426;30.698;104.050;2022-09-02T15:31:23;29.23;;;20.37;;
17858;SDS011;35426;30.698;104.050;2022-09-02T15:33:56;30.17;;;19.83;;
17858;SDS011;35426;30.698;104.050;2022-09-02T15:36:33;27.80;;;19.00;;
17858;SDS011;35426;30.698;104.050;2022-09-02T15:39:08;28.90;;;19.53;;
17858;SDS011;35426;30.698;104.050;2022-09-02T15:41:43;29.43;;;19.17;;
17858;SDS011;35426;30.698;104.050;2022-09-02T15:44:23;30.37;;;19.97;;
17858;SDS011;35426;30.698;104.050;2022-09-02T15:46:57;32.73;;;19.03;;
17858;SDS011;35426;30.698;104.050;2022-09-02T15:49:33;30.53;;;19.37;;
17858;SDS011;35426;30.698;104.050;2022-09-02T15:52:07;29.57;;;19.90;;
17858;SDS011;35426;30.698;104.050;2022-09-02T15:54:42;35.80;;;22.27;;